sensor_id;sensor_type;location;lat;lon;timestamp;temperature;humidity
2062;DHT22;11070;51.336;12.340;2023-03-14T00:00:52;10.90;1.00
2062;DHT22;11070;51.336;12.340;2023-03-14T00:03:18;10.90;1.00
2062;DHT22;11070;51.336;12.340;2023-03-14T00:05:44;10.90;1.00
2062;DHT22;11070;51.336;12.340;2023-03-14T00:08:09;10.90;1.00
2062;DHT22;11070;51.336;12.340;2023-03-14T00:10:36;10.90;1.00
2062;DHT22;11070;51.336;12.340;2023-03-14T00:13:02;10.90;1.00
2062;DHT22;11070;51.336;12.340;2023-03-14T00:15:28;10.80;1.00
2062;DHT22;11070;51.336;12.340;2023-03-14T00:17:53;10.80;1.00
2062;DHT22;11070;51.336;12.340;2023-03-14T00:20:19;10.80;1.00
2062;DHT22;11070;51.336;12.340;2023-03-14T00:22:45;10.90;1.00
2062;DHT22;11070;51.336;12.340;2023-03-14T00:25:11;10.80;1.00
2062;DHT22;11070;51.336;12.340;2023-03-14T00:27:37;10.80;1.00
2062;DHT22;11070;51.336;12.340;2023-03-14T00:30:04;10.70;1.00
2062;DHT22;11070;51.336;12.340;2023-03-14T00:32:30;10.70;1.00
2062;DHT22;11070;51.336;12.340;2023-03-14T00:34:56;10.70;1.00
2062;DHT22;11070;51.336;12.340;2023-03-14T00:37:22;10.70;1.00
2062;DHT22;11070;51.336;12.340;2023-03-14T00:39:47;10.70;1.00
2062;DHT22;11070;51.336;12.340;2023-03-14T00:42:13;10.70;1.00
2062;DHT22;11070;51.336;12.340;2023-03-14T00:44:39;10.70;1.00
2062;DHT22;11070;51.336;12.340;2023-03-14T00:47:05;10.70;1.00
2062;DHT22;11070;51.336;12.340;2023-03-14T00:49:30;10.60;1.00
2062;DHT22;11070;51.336;12.340;2023-03-14T00:51:56;10.70;1.00
2062;DHT22;11070;51.336;12.340;2023-03-14T00:54:22;10.60;1.00
2062;DHT22;11070;51.336;12.340;2023-03-14T00:56:48;10.70;1.00
2062;DHT22;11070;51.336;12.340;2023-03-14T00:59:14;10.70;1.00
2062;DHT22;11070;51.336;12.340;2023-03-14T01:01:40;10.70;1.00
2062;DHT22;11070;51.336;12.340;2023-03-14T01:04:07;10.70;99.90
2062;DHT22;11070;51.336;12.340;2023-03-14T01:06:33;10.80;1.00
2062;DHT22;11070;51.336;12.340;2023-03-14T01:08:59;10.80;1.00
2062;DHT22;11070;51.336;12.340;2023-03-14T01:11:27;10.90;1.00
2062;DHT22;11070;51.336;12.340;2023-03-14T01:13:54;11.00;1.00
2062;DHT22;11070;51.336;12.340;2023-03-14T01:16:21;11.10;25.90
2062;DHT22;11070;51.336;12.340;2023-03-14T01:18:47;11.10;1.00
2062;DHT22;11070;51.336;12.340;2023-03-14T01:21:19;11.20;31.20
2062;DHT22;11070;51.336;12.340;2023-03-14T01:23:46;11.20;1.00
2062;DHT22;11070;51.336;12.340;2023-03-14T01:26:13;11.20;1.00
2062;DHT22;11070;51.336;12.340;2023-03-14T01:28:39;11.20;1.00
2062;DHT22;11070;51.336;12.340;2023-03-14T01:31:07;11.20;1.00
2062;DHT22;11070;51.336;12.340;2023-03-14T01:33:34;11.30;99.90
2062;DHT22;11070;51.336;12.340;2023-03-14T01:35:59;11.30;99.90
2062;DHT22;11070;51.336;12.340;2023-03-14T01:38:28;11.20;99.90
2062;DHT22;11070;51.336;12.340;2023-03-14T01:40:54;11.30;99.90
2062;DHT22;11070;51.336;12.340;2023-03-14T01:43:20;11.30;1.00
2062;DHT22;11070;51.336;12.340;2023-03-14T01:49:01;11.30;1.00
2062;DHT22;11070;51.336;12.340;2023-03-14T01:56:37;11.20;1.00
2062;DHT22;11070;51.336;12.340;2023-03-14T01:59:04;11.20;1.00
2062;DHT22;11070;51.336;12.340;2023-03-14T02:01:32;11.20;1.00
2062;DHT22;11070;51.336;12.340;2023-03-14T02:04:00;11.10;1.00
2062;DHT22;11070;51.336;12.340;2023-03-14T02:06:31;11.10;9.00
2062;DHT22;11070;51.336;12.340;2023-03-14T02:09:00;11.10;1.00
2062;DHT22;11070;51.336;12.340;2023-03-14T02:11:28;11.10;1.00
2062;DHT22;11070;51.336;12.340;2023-03-14T02:13:55;11.00;1.00
2062;DHT22;11070;51.336;12.340;2023-03-14T02:16:23;11.10;1.00
2062;DHT22;11070;51.336;12.340;2023-03-14T02:18:49;11.10;1.00
2062;DHT22;11070;51.336;12.340;2023-03-14T02:21:23;11.10;1.00
2062;DHT22;11070;51.336;12.340;2023-03-14T02:24:04;11.10;1.00
2062;DHT22;11070;51.336;12.340;2023-03-14T02:27:02;11.10;1.00
2062;DHT22;11070;51.336;12.340;2023-03-14T02:29:28;11.10;1.00
2062;DHT22;11070;51.336;12.340;2023-03-14T02:31:54;11.10;1.00
2062;DHT22;11070;51.336;12.340;2023-03-14T02:34:20;11.00;1.00
2062;DHT22;11070;51.336;12.340;2023-03-14T02:36:46;11.00;1.00
2062;DHT22;11070;51.336;12.340;2023-03-14T02:39:21;11.00;1.00
2062;DHT22;11070;51.336;12.340;2023-03-14T02:41:49;11.10;1.00
2062;DHT22;11070;51.336;12.340;2023-03-14T02:44:14;11.10;99.90
2062;DHT22;11070;51.336;12.340;2023-03-14T02:46:40;11.10;99.90
2062;DHT22;11070;51.336;12.340;2023-03-14T02:49:08;11.10;99.90
2062;DHT22;11070;51.336;12.340;2023-03-14T02:51:36;11.00;99.90
2062;DHT22;11070;51.336;12.340;2023-03-14T02:54:03;11.00;99.90
2062;DHT22;11070;51.336;12.340;2023-03-14T02:56:29;11.00;99.90
2062;DHT22;11070;51.336;12.340;2023-03-14T02:58:55;11.00;99.90
2062;DHT22;11070;51.336;12.340;2023-03-14T03:01:20;11.00;99.90
2062;DHT22;11070;51.336;12.340;2023-03-14T03:03:46;11.00;99.90
2062;DHT22;11070;51.336;12.340;2023-03-14T03:06:12;11.00;99.90
2062;DHT22;11070;51.336;12.340;2023-03-14T03:08:37;11.00;99.90
2062;DHT22;11070;51.336;12.340;2023-03-14T03:11:03;11.00;99.90
2062;DHT22;11070;51.336;12.340;2023-03-14T03:13:29;11.00;99.90
2062;DHT22;11070;51.336;12.340;2023-03-14T03:15:55;11.00;99.90
2062;DHT22;11070;51.336;12.340;2023-03-14T03:18:21;11.00;99.90
2062;DHT22;11070;51.336;12.340;2023-03-14T03:20:47;11.00;99.90
2062;DHT22;11070;51.336;12.340;2023-03-14T03:23:13;11.00;99.90
2062;DHT22;11070;51.336;12.340;2023-03-14T03:25:39;11.00;99.90
2062;DHT22;11070;51.336;12.340;2023-03-14T03:28:05;11.00;99.90
2062;DHT22;11070;51.336;12.340;2023-03-14T03:30:37;11.10;76.40
2062;DHT22;11070;51.336;12.340;2023-03-14T03:33:03;11.10;16.80
2062;DHT22;11070;51.336;12.340;2023-03-14T03:35:29;11.10;1.00
2062;DHT22;11070;51.336;12.340;2023-03-14T03:37:54;11.10;1.00
2062;DHT22;11070;51.336;12.340;2023-03-14T03:40:20;11.20;1.00
2062;DHT22;11070;51.336;12.340;2023-03-14T03:42:46;11.20;1.00
2062;DHT22;11070;51.336;12.340;2023-03-14T03:45:12;11.20;1.00
2062;DHT22;11070;51.336;12.340;2023-03-14T03:47:38;11.20;1.00
2062;DHT22;11070;51.336;12.340;2023-03-14T03:50:04;11.20;1.00
2062;DHT22;11070;51.336;12.340;2023-03-14T03:52:29;11.20;1.00
2062;DHT22;11070;51.336;12.340;2023-03-14T03:54:55;11.20;1.00
2062;DHT22;11070;51.336;12.340;2023-03-14T03:57:21;11.20;1.00
2062;DHT22;11070;51.336;12.340;2023-03-14T03:59:46;11.20;1.00
2062;DHT22;11070;51.336;12.340;2023-03-14T04:02:12;11.10;1.00
2062;DHT22;11070;51.336;12.340;2023-03-14T04:04:38;11.10;1.00
2062;DHT22;11070;51.336;12.340;2023-03-14T04:07:04;11.10;1.00
2062;DHT22;11070;51.336;12.340;2023-03-14T04:09:30;11.00;1.00
2062;DHT22;11070;51.336;12.340;2023-03-14T04:11:56;11.00;1.00
2062;DHT22;11070;51.336;12.340;2023-03-14T04:14:22;11.00;1.00
2062;DHT22;11070;51.336;12.340;2023-03-14T04:16:47;11.00;1.00
2062;DHT22;11070;51.336;12.340;2023-03-14T04:19:13;11.00;1.00
2062;DHT22;11070;51.336;12.340;2023-03-14T04:21:39;11.00;1.00
2062;DHT22;11070;51.336;12.340;2023-03-14T04:24:10;10.90;1.00
2062;DHT22;11070;51.336;12.340;2023-03-14T04:26:36;10.90;1.00
2062;DHT22;11070;51.336;12.340;2023-03-14T04:29:02;10.90;1.00
2062;DHT22;11070;51.336;12.340;2023-03-14T04:31:28;10.80;1.00
2062;DHT22;11070;51.336;12.340;2023-03-14T04:33:53;10.80;1.00
2062;DHT22;11070;51.336;12.340;2023-03-14T04:36:19;10.80;1.00
2062;DHT22;11070;51.336;12.340;2023-03-14T04:38:44;10.70;1.00
2062;DHT22;11070;51.336;12.340;2023-03-14T04:41:10;10.70;4.10
2062;DHT22;11070;51.336;12.340;2023-03-14T04:43:36;10.70;16.10
2062;DHT22;11070;51.336;12.340;2023-03-14T04:46:02;10.70;5.60
2062;DHT22;11070;51.336;12.340;2023-03-14T04:48:27;10.70;10.20
2062;DHT22;11070;51.336;12.340;2023-03-14T04:50:53;10.70;27.00
2062;DHT22;11070;51.336;12.340;2023-03-14T04:53:19;10.60;48.00
2062;DHT22;11070;51.336;12.340;2023-03-14T04:55:52;10.70;48.90
2062;DHT22;11070;51.336;12.340;2023-03-14T04:58:19;10.60;47.90
2062;DHT22;11070;51.336;12.340;2023-03-14T05:00:45;10.60;48.40
2062;DHT22;11070;51.336;12.340;2023-03-14T05:03:10;10.60;29.50
2062;DHT22;11070;51.336;12.340;2023-03-14T05:05:36;10.60;1.00
2062;DHT22;11070;51.336;12.340;2023-03-14T05:08:02;10.70;1.00
2062;DHT22;11070;51.336;12.340;2023-03-14T05:10:28;10.70;1.00
2062;DHT22;11070;51.336;12.340;2023-03-14T05:12:53;10.70;1.00
2062;DHT22;11070;51.336;12.340;2023-03-14T05:15:19;10.70;1.00
2062;DHT22;11070;51.336;12.340;2023-03-14T05:17:45;10.80;1.00
2062;DHT22;11070;51.336;12.340;2023-03-14T05:20:11;10.70;1.00
2062;DHT22;11070;51.336;12.340;2023-03-14T05:22:38;10.70;1.00
2062;DHT22;11070;51.336;12.340;2023-03-14T05:25:04;10.70;1.00
2062;DHT22;11070;51.336;12.340;2023-03-14T05:27:30;10.70;1.00
2062;DHT22;11070;51.336;12.340;2023-03-14T05:29:56;10.70;1.00
2062;DHT22;11070;51.336;12.340;2023-03-14T05:32:22;10.70;1.00
2062;DHT22;11070;51.336;12.340;2023-03-14T05:34:47;10.70;1.00
2062;DHT22;11070;51.336;12.340;2023-03-14T05:37:13;10.60;1.00
2062;DHT22;11070;51.336;12.340;2023-03-14T05:39:39;10.60;1.00
2062;DHT22;11070;51.336;12.340;2023-03-14T05:42:04;10.60;1.00
2062;DHT22;11070;51.336;12.340;2023-03-14T05:44:30;10.60;1.00
2062;DHT22;11070;51.336;12.340;2023-03-14T05:46:56;10.60;1.00
2062;DHT22;11070;51.336;12.340;2023-03-14T05:49:21;10.60;1.00
2062;DHT22;11070;51.336;12.340;2023-03-14T05:51:47;10.60;1.00
2062;DHT22;11070;51.336;12.340;2023-03-14T05:54:13;10.60;1.00
2062;DHT22;11070;51.336;12.340;2023-03-14T05:56:38;10.60;1.00
2062;DHT22;11070;51.336;12.340;2023-03-14T05:59:04;10.60;1.00
2062;DHT22;11070;51.336;12.340;2023-03-14T06:01:30;10.60;1.00
2062;DHT22;11070;51.336;12.340;2023-03-14T06:03:56;10.60;1.00
2062;DHT22;11070;51.336;12.340;2023-03-14T06:06:21;10.60;1.00
2062;DHT22;11070;51.336;12.340;2023-03-14T06:08:47;10.60;1.00
2062;DHT22;11070;51.336;12.340;2023-03-14T06:11:13;10.60;1.00
2062;DHT22;11070;51.336;12.340;2023-03-14T06:13:38;10.70;1.00
2062;DHT22;11070;51.336;12.340;2023-03-14T06:16:05;10.70;1.00
2062;DHT22;11070;51.336;12.340;2023-03-14T06:18:31;10.80;1.00
2062;DHT22;11070;51.336;12.340;2023-03-14T06:20:57;10.80;1.00
2062;DHT22;11070;51.336;12.340;2023-03-14T06:23:23;10.90;1.00
2062;DHT22;11070;51.336;12.340;2023-03-14T06:25:49;10.90;1.00
2062;DHT22;11070;51.336;12.340;2023-03-14T06:28:14;10.90;1.00
2062;DHT22;11070;51.336;12.340;2023-03-14T06:30:41;10.90;1.00
2062;DHT22;11070;51.336;12.340;2023-03-14T06:33:06;10.90;1.00
2062;DHT22;11070;51.336;12.340;2023-03-14T06:35:32;10.90;1.00
2062;DHT22;11070;51.336;12.340;2023-03-14T06:37:58;10.90;1.00
2062;DHT22;11070;51.336;12.340;2023-03-14T06:40:23;10.90;1.00
2062;DHT22;11070;51.336;12.340;2023-03-14T06:42:49;10.90;1.00
2062;DHT22;11070;51.336;12.340;2023-03-14T06:45:15;10.90;1.00
2062;DHT22;11070;51.336;12.340;2023-03-14T06:47:40;10.90;1.00
2062;DHT22;11070;51.336;12.340;2023-03-14T06:50:07;10.90;1.00
2062;DHT22;11070;51.336;12.340;2023-03-14T06:52:33;10.90;1.00
2062;DHT22;11070;51.336;12.340;2023-03-14T06:54:59;11.00;1.00
2062;DHT22;11070;51.336;12.340;2023-03-14T06:57:24;11.00;1.00
2062;DHT22;11070;51.336;12.340;2023-03-14T06:59:50;11.00;1.00
2062;DHT22;11070;51.336;12.340;2023-03-14T07:02:16;11.00;1.00
2062;DHT22;11070;51.336;12.340;2023-03-14T07:04:42;11.00;1.00
2062;DHT22;11070;51.336;12.340;2023-03-14T07:07:08;11.10;1.00
2062;DHT22;11070;51.336;12.340;2023-03-14T07:09:34;11.10;1.00
2062;DHT22;11070;51.336;12.340;2023-03-14T07:12:00;11.10;1.00
2062;DHT22;11070;51.336;12.340;2023-03-14T07:14:26;11.20;1.00
2062;DHT22;11070;51.336;12.340;2023-03-14T07:16:51;11.30;1.00
2062;DHT22;11070;51.336;12.340;2023-03-14T07:19:17;11.30;1.00
2062;DHT22;11070;51.336;12.340;2023-03-14T07:21:43;11.40;1.00
2062;DHT22;11070;51.336;12.340;2023-03-14T07:24:09;11.40;1.00
2062;DHT22;11070;51.336;12.340;2023-03-14T07:26:35;11.50;1.00
2062;DHT22;11070;51.336;12.340;2023-03-14T07:29:01;11.50;1.00
2062;DHT22;11070;51.336;12.340;2023-03-14T07:31:28;11.50;1.00
2062;DHT22;11070;51.336;12.340;2023-03-14T07:33:55;11.60;1.00
2062;DHT22;11070;51.336;12.340;2023-03-14T07:36:20;11.60;1.00
2062;DHT22;11070;51.336;12.340;2023-03-14T07:38:46;11.70;1.00
2062;DHT22;11070;51.336;12.340;2023-03-14T07:41:12;11.80;1.00
2062;DHT22;11070;51.336;12.340;2023-03-14T07:43:38;11.90;1.00
2062;DHT22;11070;51.336;12.340;2023-03-14T07:46:04;12.00;1.00
2062;DHT22;11070;51.336;12.340;2023-03-14T07:48:30;12.00;1.00
2062;DHT22;11070;51.336;12.340;2023-03-14T07:50:56;12.10;1.00
2062;DHT22;11070;51.336;12.340;2023-03-14T07:53:22;12.20;1.00
2062;DHT22;11070;51.336;12.340;2023-03-14T07:55:53;12.20;1.00
2062;DHT22;11070;51.336;12.340;2023-03-14T07:58:19;12.40;1.00
2062;DHT22;11070;51.336;12.340;2023-03-14T08:00:47;12.90;1.00
2062;DHT22;11070;51.336;12.340;2023-03-14T08:03:12;12.80;1.00
2062;DHT22;11070;51.336;12.340;2023-03-14T08:05:38;12.80;1.00
2062;DHT22;11070;51.336;12.340;2023-03-14T08:08:05;12.90;1.00
2062;DHT22;11070;51.336;12.340;2023-03-14T08:10:31;12.70;1.00
2062;DHT22;11070;51.336;12.340;2023-03-14T08:12:58;12.60;1.00
2062;DHT22;11070;51.336;12.340;2023-03-14T08:15:25;12.50;1.00
2062;DHT22;11070;51.336;12.340;2023-03-14T08:17:51;12.60;1.00
2062;DHT22;11070;51.336;12.340;2023-03-14T08:20:18;13.00;1.00
2062;DHT22;11070;51.336;12.340;2023-03-14T08:22:44;13.70;1.00
2062;DHT22;11070;51.336;12.340;2023-03-14T08:25:10;13.60;1.00
2062;DHT22;11070;51.336;12.340;2023-03-14T08:27:36;13.20;1.00
2062;DHT22;11070;51.336;12.340;2023-03-14T08:30:11;12.80;1.00
2062;DHT22;11070;51.336;12.340;2023-03-14T08:32:37;12.90;1.00
2062;DHT22;11070;51.336;12.340;2023-03-14T08:35:03;12.90;1.00
2062;DHT22;11070;51.336;12.340;2023-03-14T08:37:31;12.70;1.00
2062;DHT22;11070;51.336;12.340;2023-03-14T08:39:57;12.70;1.00
2062;DHT22;11070;51.336;12.340;2023-03-14T08:42:23;12.70;1.00
2062;DHT22;11070;51.336;12.340;2023-03-14T08:44:50;12.60;1.00
2062;DHT22;11070;51.336;12.340;2023-03-14T08:47:16;12.70;1.00
2062;DHT22;11070;51.336;12.340;2023-03-14T08:49:42;12.60;1.00
2062;DHT22;11070;51.336;12.340;2023-03-14T08:52:08;12.70;1.00
2062;DHT22;11070;51.336;12.340;2023-03-14T08:54:34;12.70;1.00
2062;DHT22;11070;51.336;12.340;2023-03-14T08:56:59;12.70;1.00
2062;DHT22;11070;51.336;12.340;2023-03-14T08:59:25;12.80;1.00
2062;DHT22;11070;51.336;12.340;2023-03-14T09:01:51;12.90;1.00
2062;DHT22;11070;51.336;12.340;2023-03-14T09:04:16;12.90;1.00
2062;DHT22;11070;51.336;12.340;2023-03-14T09:06:42;12.80;1.00
2062;DHT22;11070;51.336;12.340;2023-03-14T09:09:08;12.90;1.00
2062;DHT22;11070;51.336;12.340;2023-03-14T09:11:34;12.80;1.00
2062;DHT22;11070;51.336;12.340;2023-03-14T09:14:00;12.80;1.00
2062;DHT22;11070;51.336;12.340;2023-03-14T09:16:25;12.80;1.00
2062;DHT22;11070;51.336;12.340;2023-03-14T09:18:51;12.80;1.00
2062;DHT22;11070;51.336;12.340;2023-03-14T09:21:22;12.80;1.00
2062;DHT22;11070;51.336;12.340;2023-03-14T09:23:48;12.70;1.00
2062;DHT22;11070;51.336;12.340;2023-03-14T09:26:14;12.80;1.00
2062;DHT22;11070;51.336;12.340;2023-03-14T09:28:39;12.70;1.00
2062;DHT22;11070;51.336;12.340;2023-03-14T09:31:10;12.80;1.00
2062;DHT22;11070;51.336;12.340;2023-03-14T09:33:36;12.80;1.00
2062;DHT22;11070;51.336;12.340;2023-03-14T09:36:03;12.80;1.00
2062;DHT22;11070;51.336;12.340;2023-03-14T09:38:29;12.80;1.00
2062;DHT22;11070;51.336;12.340;2023-03-14T09:40:57;12.80;1.00
2062;DHT22;11070;51.336;12.340;2023-03-14T09:43:24;12.80;1.00
2062;DHT22;11070;51.336;12.340;2023-03-14T09:45:51;12.80;1.00
2062;DHT22;11070;51.336;12.340;2023-03-14T09:48:21;12.80;1.00
2062;DHT22;11070;51.336;12.340;2023-03-14T09:50:53;12.90;1.00
2062;DHT22;11070;51.336;12.340;2023-03-14T09:53:43;13.00;1.00
2062;DHT22;11070;51.336;12.340;2023-03-14T09:56:23;13.00;1.00
2062;DHT22;11070;51.336;12.340;2023-03-14T09:59:00;13.10;1.00
2062;DHT22;11070;51.336;12.340;2023-03-14T10:01:31;13.20;1.00
2062;DHT22;11070;51.336;12.340;2023-03-14T10:04:01;13.20;1.00
2062;DHT22;11070;51.336;12.340;2023-03-14T10:06:29;13.20;1.00
2062;DHT22;11070;51.336;12.340;2023-03-14T10:08:56;13.30;1.00
2062;DHT22;11070;51.336;12.340;2023-03-14T10:11:23;13.20;1.00
2062;DHT22;11070;51.336;12.340;2023-03-14T10:14:06;13.10;1.00
2062;DHT22;11070;51.336;12.340;2023-03-14T10:16:35;13.10;1.00
2062;DHT22;11070;51.336;12.340;2023-03-14T10:19:09;13.00;1.00
2062;DHT22;11070;51.336;12.340;2023-03-14T10:22:00;13.00;1.00
2062;DHT22;11070;51.336;12.340;2023-03-14T10:24:28;13.00;1.00
2062;DHT22;11070;51.336;12.340;2023-03-14T10:27:03;13.00;1.00
2062;DHT22;11070;51.336;12.340;2023-03-14T10:29:31;13.00;1.00
2062;DHT22;11070;51.336;12.340;2023-03-14T10:32:05;13.00;1.00
2062;DHT22;11070;51.336;12.340;2023-03-14T10:34:35;13.00;1.00
2062;DHT22;11070;51.336;12.340;2023-03-14T10:37:14;13.10;1.00
2062;DHT22;11070;51.336;12.340;2023-03-14T10:39:46;13.20;1.00
2062;DHT22;11070;51.336;12.340;2023-03-14T10:42:25;13.20;1.00
2062;DHT22;11070;51.336;12.340;2023-03-14T10:44:57;13.30;1.00
2062;DHT22;11070;51.336;12.340;2023-03-14T10:47:26;13.40;1.00
2062;DHT22;11070;51.336;12.340;2023-03-14T10:49:54;13.30;1.00
2062;DHT22;11070;51.336;12.340;2023-03-14T10:52:29;13.30;1.00
2062;DHT22;11070;51.336;12.340;2023-03-14T10:55:03;13.20;1.00
2062;DHT22;11070;51.336;12.340;2023-03-14T10:57:29;13.30;1.00
2062;DHT22;11070;51.336;12.340;2023-03-14T10:59:56;13.40;1.00
2062;DHT22;11070;51.336;12.340;2023-03-14T11:02:36;13.50;1.00
2062;DHT22;11070;51.336;12.340;2023-03-14T11:05:43;13.40;1.00
2062;DHT22;11070;51.336;12.340;2023-03-14T11:08:31;13.20;1.00
2062;DHT22;11070;51.336;12.340;2023-03-14T11:11:24;13.10;1.00
2062;DHT22;11070;51.336;12.340;2023-03-14T11:14:08;13.10;1.00
2062;DHT22;11070;51.336;12.340;2023-03-14T11:20:30;13.00;1.00
2062;DHT22;11070;51.336;12.340;2023-03-14T11:22:46;13.10;1.00
2062;DHT22;11070;51.336;12.340;2023-03-14T11:25:23;12.90;1.00
2062;DHT22;11070;51.336;12.340;2023-03-14T11:28:23;13.00;1.00
2062;DHT22;11070;51.336;12.340;2023-03-14T11:30:56;13.00;1.00
2062;DHT22;11070;51.336;12.340;2023-03-14T11:33:36;13.00;1.00
2062;DHT22;11070;51.336;12.340;2023-03-14T11:38:41;13.10;1.00
2062;DHT22;11070;51.336;12.340;2023-03-14T11:41:14;13.30;1.00
2062;DHT22;11070;51.336;12.340;2023-03-14T11:43:41;13.40;1.00
2062;DHT22;11070;51.336;12.340;2023-03-14T11:46:28;13.50;1.00
2062;DHT22;11070;51.336;12.340;2023-03-14T11:49:13;13.90;1.00
2062;DHT22;11070;51.336;12.340;2023-03-14T11:51:43;14.10;1.00
2062;DHT22;11070;51.336;12.340;2023-03-14T11:57:01;13.80;1.00
2062;DHT22;11070;51.336;12.340;2023-03-14T12:06:13;13.60;1.00
2062;DHT22;11070;51.336;12.340;2023-03-14T12:08:57;13.40;1.00
2062;DHT22;11070;51.336;12.340;2023-03-14T12:11:48;13.40;1.00
2062;DHT22;11070;51.336;12.340;2023-03-14T12:14:25;13.30;1.00
2062;DHT22;11070;51.336;12.340;2023-03-14T12:17:04;13.30;1.00
2062;DHT22;11070;51.336;12.340;2023-03-14T12:19:33;13.30;1.00
2062;DHT22;11070;51.336;12.340;2023-03-14T12:22:06;13.30;1.00
2062;DHT22;11070;51.336;12.340;2023-03-14T12:24:36;13.30;1.00
2062;DHT22;11070;51.336;12.340;2023-03-14T12:27:04;13.20;1.00
2062;DHT22;11070;51.336;12.340;2023-03-14T12:29:30;12.70;1.00
2062;DHT22;11070;51.336;12.340;2023-03-14T12:32:24;12.40;1.00
2062;DHT22;11070;51.336;12.340;2023-03-14T12:34:50;12.40;1.00
2062;DHT22;11070;51.336;12.340;2023-03-14T12:37:28;12.60;1.00
2062;DHT22;11070;51.336;12.340;2023-03-14T12:42:54;13.30;1.00
2062;DHT22;11070;51.336;12.340;2023-03-14T12:50:41;13.60;1.00
2062;DHT22;11070;51.336;12.340;2023-03-14T12:56:32;13.50;1.00
2062;DHT22;11070;51.336;12.340;2023-03-14T12:59:29;13.50;1.00
2062;DHT22;11070;51.336;12.340;2023-03-14T13:04:46;13.50;1.00
2062;DHT22;11070;51.336;12.340;2023-03-14T13:10:24;13.50;1.00
2062;DHT22;11070;51.336;12.340;2023-03-14T13:13:24;13.60;1.00
2062;DHT22;11070;51.336;12.340;2023-03-14T13:15:57;13.60;1.00
2062;DHT22;11070;51.336;12.340;2023-03-14T13:18:36;13.60;1.00
2062;DHT22;11070;51.336;12.340;2023-03-14T13:21:12;13.80;1.00
2062;DHT22;11070;51.336;12.340;2023-03-14T13:23:40;13.90;1.00
2062;DHT22;11070;51.336;12.340;2023-03-14T13:26:11;13.80;1.00
2062;DHT22;11070;51.336;12.340;2023-03-14T13:28:38;13.90;1.00
2062;DHT22;11070;51.336;12.340;2023-03-14T13:31:05;14.00;1.00
2062;DHT22;11070;51.336;12.340;2023-03-14T13:33:34;13.90;1.00
2062;DHT22;11070;51.336;12.340;2023-03-14T13:36:02;14.00;1.00
2062;DHT22;11070;51.336;12.340;2023-03-14T13:38:31;13.90;1.00
2062;DHT22;11070;51.336;12.340;2023-03-14T13:40:58;14.40;1.00
2062;DHT22;11070;51.336;12.340;2023-03-14T13:43:33;14.90;1.00
2062;DHT22;11070;51.336;12.340;2023-03-14T13:46:04;14.60;99.90
2062;DHT22;11070;51.336;12.340;2023-03-14T13:48:34;15.10;99.90
2062;DHT22;11070;51.336;12.340;2023-03-14T13:51:06;15.30;99.90
2062;DHT22;11070;51.336;12.340;2023-03-14T13:53:42;15.20;99.90
2062;DHT22;11070;51.336;12.340;2023-03-14T13:56:11;14.60;99.90
2062;DHT22;11070;51.336;12.340;2023-03-14T13:58:38;14.90;99.90
2062;DHT22;11070;51.336;12.340;2023-03-14T14:01:22;15.00;99.90
2062;DHT22;11070;51.336;12.340;2023-03-14T14:03:54;15.40;99.90
2062;DHT22;11070;51.336;12.340;2023-03-14T14:06:34;15.00;99.90
2062;DHT22;11070;51.336;12.340;2023-03-14T14:09:15;15.20;99.90
2062;DHT22;11070;51.336;12.340;2023-03-14T14:11:48;15.20;99.90
2062;DHT22;11070;51.336;12.340;2023-03-14T14:14:27;14.60;99.90
2062;DHT22;11070;51.336;12.340;2023-03-14T14:16:54;14.30;99.90
2062;DHT22;11070;51.336;12.340;2023-03-14T14:19:22;14.30;99.90
2062;DHT22;11070;51.336;12.340;2023-03-14T14:21:49;14.30;99.90
2062;DHT22;11070;51.336;12.340;2023-03-14T14:24:15;14.30;99.90
2062;DHT22;11070;51.336;12.340;2023-03-14T14:26:50;14.20;99.90
2062;DHT22;11070;51.336;12.340;2023-03-14T14:29:30;14.30;99.90
2062;DHT22;11070;51.336;12.340;2023-03-14T14:32:13;14.30;99.90
2062;DHT22;11070;51.336;12.340;2023-03-14T14:34:43;14.20;99.90
2062;DHT22;11070;51.336;12.340;2023-03-14T14:37:23;14.20;99.90
2062;DHT22;11070;51.336;12.340;2023-03-14T14:39:53;14.30;99.90
2062;DHT22;11070;51.336;12.340;2023-03-14T14:42:21;14.20;99.90
2062;DHT22;11070;51.336;12.340;2023-03-14T14:44:50;14.10;99.90
2062;DHT22;11070;51.336;12.340;2023-03-14T14:47:20;14.10;99.90
2062;DHT22;11070;51.336;12.340;2023-03-14T14:49:47;14.00;99.90
2062;DHT22;11070;51.336;12.340;2023-03-14T14:52:16;14.00;99.90
2062;DHT22;11070;51.336;12.340;2023-03-14T14:54:54;14.00;99.90
2062;DHT22;11070;51.336;12.340;2023-03-14T14:57:25;13.80;99.90
2062;DHT22;11070;51.336;12.340;2023-03-14T14:59:56;13.60;1.00
2062;DHT22;11070;51.336;12.340;2023-03-14T15:04:51;12.60;1.00
2062;DHT22;11070;51.336;12.340;2023-03-14T15:07:16;12.20;1.00
2062;DHT22;11070;51.336;12.340;2023-03-14T15:09:42;12.00;99.90
2062;DHT22;11070;51.336;12.340;2023-03-14T15:12:08;11.90;99.90
2062;DHT22;11070;51.336;12.340;2023-03-14T15:14:34;11.90;1.00
2062;DHT22;11070;51.336;12.340;2023-03-14T15:16:59;11.80;99.90
2062;DHT22;11070;51.336;12.340;2023-03-14T15:19:26;11.60;1.00
2062;DHT22;11070;51.336;12.340;2023-03-14T15:21:53;10.70;42.20
2062;DHT22;11070;51.336;12.340;2023-03-14T15:24:19;9.30;99.90
2062;DHT22;11070;51.336;12.340;2023-03-14T15:26:45;8.50;99.90
2062;DHT22;11070;51.336;12.340;2023-03-14T15:29:11;8.10;99.90
2062;DHT22;11070;51.336;12.340;2023-03-14T15:31:39;7.80;14.30
2062;DHT22;11070;51.336;12.340;2023-03-14T15:34:04;7.60;1.00
2062;DHT22;11070;51.336;12.340;2023-03-14T15:36:34;7.60;1.00
2062;DHT22;11070;51.336;12.340;2023-03-14T15:39:01;7.50;1.00
2062;DHT22;11070;51.336;12.340;2023-03-14T15:41:28;7.40;1.00
2062;DHT22;11070;51.336;12.340;2023-03-14T15:43:54;7.40;99.90
2062;DHT22;11070;51.336;12.340;2023-03-14T15:46:20;7.30;1.00
2062;DHT22;11070;51.336;12.340;2023-03-14T15:48:48;7.20;1.00
2062;DHT22;11070;51.336;12.340;2023-03-14T15:51:14;7.20;1.00
2062;DHT22;11070;51.336;12.340;2023-03-14T15:56:12;7.00;1.00
2062;DHT22;11070;51.336;12.340;2023-03-14T15:58:38;6.80;1.00
2062;DHT22;11070;51.336;12.340;2023-03-14T16:01:06;6.70;1.00
2062;DHT22;11070;51.336;12.340;2023-03-14T16:03:35;6.60;99.90
2062;DHT22;11070;51.336;12.340;2023-03-14T16:06:01;6.60;1.00
2062;DHT22;11070;51.336;12.340;2023-03-14T16:08:26;6.50;99.90
2062;DHT22;11070;51.336;12.340;2023-03-14T16:10:54;6.40;1.00
2062;DHT22;11070;51.336;12.340;2023-03-14T16:13:20;6.40;1.00
2062;DHT22;11070;51.336;12.340;2023-03-14T16:15:53;6.20;1.00
2062;DHT22;11070;51.336;12.340;2023-03-14T16:18:19;6.20;1.00
2062;DHT22;11070;51.336;12.340;2023-03-14T16:20:54;6.10;99.90
2062;DHT22;11070;51.336;12.340;2023-03-14T16:23:20;6.00;99.90
2062;DHT22;11070;51.336;12.340;2023-03-14T16:25:46;6.00;1.00
2062;DHT22;11070;51.336;12.340;2023-03-14T16:28:12;6.00;99.90
2062;DHT22;11070;51.336;12.340;2023-03-14T16:30:38;5.80;1.00
2062;DHT22;11070;51.336;12.340;2023-03-14T16:33:03;5.80;1.00
2062;DHT22;11070;51.336;12.340;2023-03-14T16:35:37;5.70;1.00
2062;DHT22;11070;51.336;12.340;2023-03-14T16:38:03;5.70;99.90
2062;DHT22;11070;51.336;12.340;2023-03-14T16:40:29;5.60;99.90